Time;durP1;ratioP1;P1;durP2;ratioP2;P2;SDS_P1;SDS_P2;PMS_P1;PMS_P2;Temp;Humidity;BMP_temperature;BMP_pressure;BME280_temperature;BME280_humidity;BME280_pressure;Samples;Min_cycle;Max_cycle;Signal;HPM_P1;HPM_P2
2021/11/12 00:02:50;;;;;;;;;89.00;73.00;;;;;8.34;62.59;101857.56;6402948;22;45343;-88
2021/11/12 00:13:44;;;;;;;;;87.00;68.75;;;;;8.37;62.50;101878.66;6401710;22;45663;-86
2021/11/12 00:16:13;;;;;;;;;88.75;71.00;;;;;8.48;62.20;101905.19;6406142;22;45182;-88
2021/11/12 00:18:48;;;;;;;;;88.50;69.50;;;;;8.28;62.41;101875.78;6378017;22;45657;-87
2021/11/12 00:21:13;;;;;;;;;85.75;69.50;;;;;8.30;62.41;101875.00;6377957;22;45414;-88
2021/11/12 00:23:44;;;;;;;;;83.50;68.00;;;;;8.39;62.12;101895.34;6377833;22;45380;-87
2021/11/12 00:26:37;;;;;;;;;87.50;71.50;;;;;8.32;62.57;101881.16;6407052;22;45447;-87
2021/11/12 00:29:05;;;;;;;;;82.25;64.75;;;;;8.44;62.08;101898.97;6406715;22;46135;-86
2021/11/12 00:32:01;;;;;;;;;82.00;64.25;;;;;8.22;62.48;101863.44;6377700;22;45617;-87
2021/11/12 07:02:24;;;;;;;;;53.50;43.25;;;;;6.53;68.75;101610.31;5187181;27;45417;-86
2021/11/12 07:04:52;;;;;;;;;51.25;42.00;;;;;6.47;68.76;101594.47;5151592;27;45414;-89
2021/11/12 07:07:18;;;;;;;;;55.25;42.75;;;;;6.54;68.50;101612.06;5155340;27;45229;-87
2021/11/12 07:09:51;;;;;;;;;45.25;39.00;;;;;6.55;69.01;101616.47;5152364;27;45237;-89
2021/11/12 07:12:22;;;;;;;;;49.25;39.75;;;;;6.59;68.98;101610.47;5148876;27;47300;-88
2021/11/12 07:14:57;;;;;;;;;48.75;41.00;;;;;6.83;68.67;101640.72;5153750;27;45458;-87
2021/11/12 07:18:13;;;;;;;;;;;;;;;;;;;;;
2021/11/12 07:21:27;;;;;;;;;48.00;42.75;;;;;6.93;68.49;101619.19;5166259;27;72169;-88
2021/11/12 07:23:55;;;;;;;;;52.00;40.75;;;;;6.75;68.42;101592.56;5139569;27;47260;-88
2021/11/12 07:26:31;;;;;;;;;45.50;40.25;;;;;6.90;68.47;101616.50;5141402;27;45356;-89
2021/11/12 07:29:45;;;;;;;;;;;;;;;;;;;;;
2021/11/12 07:32:44;;;;;;;;;47.00;39.00;;;;;6.61;68.17;101581.72;5159480;27;73024;-87
2021/11/12 07:35:10;;;;;;;;;45.00;37.00;;;;;6.71;68.36;101603.78;5141482;27;46958;-90
2021/11/12 07:37:45;;;;;;;;;45.00;38.25;;;;;6.49;68.01;101563.97;5160967;27;45473;-87
2021/11/12 07:49:23;;;;;;;;;;;;;;;;;;;;;
2021/11/12 07:55:34;;;;;;;;;40.00;36.00;;;;;6.76;68.29;101629.25;5156457;27;45227;-90
2021/11/12 07:58:03;;;;;;;;;42.50;37.50;;;;;6.81;68.33;101637.19;5153745;27;47204;-88
2021/11/12 08:00:41;;;;;;;;;;;;;;;;;;;;;
2021/11/12 08:07:05;;;;;;;;;38.50;36.50;;;;;7.00;67.97;101643.78;4969295;28;45536;-88
2021/11/12 14:59:13;;;;;;;;;13.67;11.33;;;;;24.11;29.43;101226.38;5754850;24;45660;-87
2021/11/12 15:05:57;;;;;;;;;;;;;;;;;;;;;
2021/11/12 15:15:11;;;;;;;;;6.50;6.50;;;;;21.04;34.16;101234.97;5865572;24;45803;-84
2021/11/12 15:17:37;;;;;;;;;16.50;13.75;;;;;20.58;34.80;101217.13;6072854;23;45473;-83
2021/11/12 15:20:04;;;;;;;;;16.75;15.75;;;;;20.25;35.28;101217.41;6085740;23;45738;-84
2021/11/12 15:25:15;;;;;;;;;16.25;14.25;;;;;19.69;36.17;101228.31;6086730;23;45955;-83
2021/11/12 15:37:56;;;;;;;;;;;;;;;;;;;;;
2021/11/12 15:43:51;;;;;;;;;;;;;;;;;;;;;
2021/11/12 15:47:15;;;;;;;;;;;;;;;;;;;;;
2021/11/12 15:49:55;;;;;;;;;12.00;12.00;;;;;17.93;40.25;101243.28;6084804;23;73467;-83
2021/11/12 15:55:52;;;;;;;;;15.25;13.50;;;;;17.68;40.73;101266.09;6085219;23;45450;-83
2021/11/12 16:22:49;;;;;;;;;;;;;;;;;;;;;
2021/11/12 16:25:53;;;;;;;;;;;;;;;;;;;;;
2021/11/12 16:32:01;;;;;;;;;;;;;;;;;;;;;
2021/11/12 16:34:37;;;;;;;;;;;;;;;;;;;;;
2021/11/12 17:11:48;;;;;;;;;24.75;23.25;;;;;15.38;48.37;101232.56;5891785;23;45570;-86
2021/11/12 18:03:23;;;;;;;;;25.50;24.75;;;;;14.11;53.51;101213.91;6056467;23;45591;-89
2021/11/12 18:06:04;;;;;;;;;27.50;23.00;;;;;13.99;53.76;101198.13;6062655;23;45488;-88
2021/11/12 18:09:34;;;;;;;;;;;;;;;;;;;;;
2021/11/12 21:44:34;;;;;;;;;;;;;;;;;;;;;
2021/11/12 21:51:15;;;;;;;;;;;;;;;;;;;;;
2021/11/12 21:53:41;;;;;;;;;32.00;26.25;;;;;12.78;67.62;101181.44;5938679;23;69302;-86
2021/11/12 21:56:08;;;;;;;;;33.75;24.50;;;;;12.77;67.47;101177.03;5997531;23;45470;-85
2021/11/12 21:58:34;;;;;;;;;19.50;17.25;;;;;12.87;67.93;101196.38;6002311;22;47103;-85
2021/11/12 22:01:16;;;;;;;;;;;;;;;;;;;;;
2021/11/12 22:04:44;;;;;;;;;;;;;;;;;;;;;
2021/11/12 22:07:38;;;;;;;;;;;;;;;;;;;;;
2021/11/12 22:10:57;;;;;;;;;;;;;;;;;;;;;
2021/11/12 22:14:04;;;;;;;;;;;;;;;;;;;;;
2021/11/12 22:17:03;;;;;;;;;;;;;;;;;;;;;
2021/11/12 22:19:28;;;;;;;;;29.50;27.75;;;;;12.78;68.13;101148.88;6208211;22;72591;-86
2021/11/12 22:22:02;;;;;;;;;32.25;26.75;;;;;12.73;68.12;101126.88;6209155;22;46877;-85
2021/11/12 22:25:01;;;;;;;;;;;;;;;;;;;;;
2021/11/12 22:31:23;;;;;;;;;39.25;32.00;;;;;12.64;68.60;101135.72;6198266;22;45576;-86
2021/11/12 22:33:55;;;;;;;;;28.50;23.00;;;;;12.72;68.85;101160.38;6208254;22;45522;-83
2021/11/12 22:36:20;;;;;;;;;29.50;28.75;;;;;12.71;68.68;101161.22;6203722;22;45587;-86
2021/11/12 22:46:21;;;;;;;;;;;;;;;;;;;;;
2021/11/12 22:48:57;;;;;;;;;;;;;;;;;;;;;
2021/11/12 22:51:44;;;;;;;;;;;;;;;;;;;;;
2021/11/12 22:54:24;;;;;;;;;34.00;31.00;;;;;12.58;69.51;101146.34;6027786;23;73418;-88
2021/11/12 22:56:58;;;;;;;;;31.50;26.25;;;;;12.66;69.27;101167.44;6025486;23;45489;-87
2021/11/12 22:59:26;;;;;;;;;30.25;25.75;;;;;12.57;69.63;101144.59;6046771;23;46060;-87
2021/11/12 23:01:54;;;;;;;;;29.00;26.75;;;;;12.68;69.63;101153.31;6206250;22;45634;-87
2021/11/12 23:04:22;;;;;;;;;36.00;29.25;;;;;12.68;69.67;101157.75;6205774;22;45741;-87
2021/11/12 23:06:51;;;;;;;;;30.50;27.50;;;;;12.56;69.11;101135.78;6209250;22;45600;-87
2021/11/12 23:09:22;;;;;;;;;27.00;22.75;;;;;12.52;69.51;101139.31;6181600;22;45524;-86
2021/11/12 23:12:18;;;;;;;;;;;;;;;;;;;;;
2021/11/12 23:14:51;;;;;;;;;30.50;29.25;;;;;12.65;69.72;101157.75;6201355;22;72748;-87
2021/11/12 23:17:35;;;;;;;;;28.00;25.50;;;;;12.66;69.60;101159.50;6208714;22;47027;-88
2021/11/12 23:20:09;;;;;;;;;31.50;28.50;;;;;12.66;69.85;101160.38;6181702;22;45589;-88
2021/11/12 23:22:41;;;;;;;;;27.25;22.75;;;;;12.60;69.75;101143.69;6210802;22;45276;-88
2021/11/12 23:25:31;;;;;;;;;27.00;24.75;;;;;12.71;70.15;101171.78;6207471;22;45693;-87
2021/11/12 23:28:03;;;;;;;;;26.00;23.25;;;;;12.69;69.87;101164.75;6207671;22;45987;-87
2021/11/12 23:31:18;;;;;;;;;;;;;;;;;;;;;
2021/11/12 23:40:17;;;;;;;;;29.50;26.75;;;;;12.76;69.85;101156.81;6198225;22;45502;-87
2021/11/12 23:42:44;;;;;;;;;24.00;20.75;;;;;12.69;70.02;101146.28;6180435;22;45992;-86
2021/11/12 23:45:10;;;;;;;;;26.50;25.25;;;;;12.79;69.70;101155.91;6208384;22;45485;-87
2021/11/12 23:47:44;;;;;;;;;22.00;22.00;;;;;12.72;69.50;101160.38;6204918;22;45723;-86
2021/11/12 23:50:14;;;;;;;;;25.25;21.00;;;;;12.78;69.73;101154.16;6205416;22;46463;-86
2021/11/12 23:52:40;;;;;;;;;21.50;20.00;;;;;12.78;69.87;101151.53;6208992;22;45336;-86
2021/11/12 23:55:19;;;;;;;;;;;;;;;;;;;;;
2021/11/12 23:57:51;;;;;;;;;24.25;23.50;;;;;12.91;69.16;101157.56;6207536;22;72144;-86
